Terminal Aerodrome Forecast
Issued by NWS

Home | Current Version | Previous Version | Text Only | Print | Product List | Glossary On
Versions: 1 2 3 4 5 6 7 8 9 10 11 12 13 14 15 16 17 18 19 20 21 22
944
FTUS43 KEAX 031124
TAFSTJ
TAF
KSTJ 031124Z 0312/0412 VRB02KT 1/2SM FG FEW150
      TEMPO 0313/0315 3SM BR
     FM031500 29008KT P6SM SCT050=

USA.gov is the U.S. government's official web portal to all federal, state and local government web resources and services.